Here is the Quick Look data you requested

The Data originates at the National Weather Service, and is made available here by the UAlbany Department of Atmospheric and Environmental Sciences

Surface Observations

KCVG 240152Z 06008KT 10SM BKN250 16/02 A2997 RMK AO2 SLP145 T01560017=
KCVG 240152Z 06008KT 10SM BKN250 16/02 A2997=
KCVG 240252Z 07008KT 10SM BKN230 14/03 A2998 RMK AO2 SLP147 T01390028 53008=
KCVG 240252Z 07008KT 10SM BKN230 14/03 A2998=
KCVG 240352Z 06011KT 10SM OVC230 14/03 A2995 RMK AO2 SLP138 T01390033=
KCVG 240352Z 06011KT 10SM OVC230 14/03 A2995=
KCVG 240452Z 04005KT 10SM SCT050 BKN070 13/03 A2995 RMK AO2 SLP136 T01330033
 401720061=
KCVG 240452Z 04005KT 10SM SCT050 BKN070 13/03 A2995=
KCVG 240552Z 01009KT 10SM SCT050 BKN070 13/02 A2995 RMK AO2 SLP140 T01280022
 10167 20122 55008=
KCVG 240552Z 01009KT 10SM SCT050 BKN070 13/02 A2995=
KCVG 240652Z 06008KT 10SM BKN055 BKN080 13/02 A2994 RMK AO2 SLP133 T01330022=
KCVG 240652Z 06008KT 10SM BKN055 BKN080 13/02 A2994=
KCVG 240752Z 05008KT 10SM SCT050 SCT080 12/02 A2992 RMK AO2 SLP127 T01170022=
KCVG 240752Z 05008KT 10SM SCT050 SCT080 12/02 A2992=
KCVG 240852Z 01009KT 10SM FEW050 SCT080 11/03 A2992 RMK AO2 SLP127 T01060028
 56012=
KCVG 240852Z 01009KT 10SM FEW050 SCT080 11/03 A2992=
KCVG 240952Z 04009KT 10SM SCT050 SCT080 11/03 A2990 RMK AO2 SLP122 T01060033=
KCVG 240952Z 04009KT 10SM SCT050 SCT080 11/03 A2990=
KCVG 241052Z 05008KT 10SM FEW070 FEW250 10/03 A2992 RMK AO2 SLP128 T01000028=
KCVG 241052Z 05008KT 10SM FEW070 FEW250 10/03 A2992=
KCVG 241152Z 03009KT 10SM CLR 11/03 A2993 RMK AO2 SLP131 T01060033 10133 20089
 53004=
KCVG 241152Z 03009KT 10SM CLR 11/03 A2993=
KCVG 241252Z 06011KT 10SM FEW080 12/03 A2993 RMK AO2 SLP132 T01220033=
KCVG 241252Z 06011KT 10SM FEW080 12/03 A2993=
KCVG 241352Z 06009KT 10SM FEW065 14/04 A2993 RMK AO2 SLP129 T01440039=
KCVG 241352Z 06009KT 10SM FEW065 14/04 A2993=
KCVG 241452Z 06011KT 10SM FEW300 17/04 A2992 RMK AO2 SLP127 T01670044 58003=
KCVG 241452Z 06011KT 10SM FEW300 17/04 A2992=
KCVG 241552Z 06011KT 10SM FEW300 18/04 A2991 RMK AO2 SLP122 T01830039=
KCVG 241552Z 06011KT 10SM FEW300 18/04 A2991=
KCVG 241652Z 03011KT 10SM CLR 20/06 A2989 RMK AO2 SLP116 T02000061=
KCVG 241652Z 03011KT 10SM CLR 20/06 A2989=
KCVG 241752Z 08009KT 10SM FEW060 21/08 A2987 RMK AO2 SLP110 T02110083 10211
 20106 58016=
KCVG 241752Z 08009KT 10SM FEW060 21/08 A2987=
KCVG 241852Z 08012KT 10SM FEW046 FEW065 22/10 A2984 RMK AO2 SLP099 T02220100=
KCVG 241852Z 08012KT 10SM FEW046 FEW065 22/10 A2984=
KCVG 241952Z 07017G21KT 10SM FEW045 SCT080 BKN100 22/11 A2983 RMK AO2 SLP095
 T02170106=
KCVG 241952Z 07017G21KT 10SM FEW045 SCT080 BKN100 22/11 A2983=
KCVG 242052Z 08014KT 10SM FEW047 FEW070 BKN100 BKN250 22/11 A2981 RMK AO2
 SLP088 T02220111 56021=
KCVG 242052Z 08014KT 10SM FEW047 FEW070 BKN100 BKN250 22/11 A2981=
KCVG 242152Z 10015KT 10SM FEW050 SCT080 BKN095 BKN250 21/11 A2980 RMK AO2
 SLP086 T02110111=
KCVG 242152Z 10015KT 10SM FEW050 SCT080 BKN095 BKN250 21/11 A2980=
KCVG 242252Z 09015KT 10SM FEW042 FEW070 SCT095 SCT250 20/12 A2980 RMK AO2
 SLP086 T02000117=
KCVG 242252Z 09015KT 10SM FEW042 FEW070 SCT095 SCT250 20/12 A2980=
KCVG 242352Z 10011KT 10SM BKN036 19/11 A2981 RMK AO2 SLP090 T01890111 10228
 20189 53001=
KCVG 242352Z 10011KT 10SM BKN036 19/11 A2981=
KCVG 250052Z 10009KT 10SM BKN035 17/11 A2981 RMK AO2 SLP089 T01720106=
KCVG 250052Z 10009KT 10SM BKN035 17/11 A2981=
KCVG 250152Z 10013KT 10SM OVC034 17/11 A2981 RMK AO2 SLP089 T01720111=
KCVG 250152Z 10013KT 10SM OVC034 17/11 A2981=